Time;durP1;ratioP1;P1;durP2;ratioP2;P2;SDS_P1;SDS_P2;PMS_P1;PMS_P2;Temp;Humidity;BMP_temperature;BMP_pressure;BME280_temperature;BME280_humidity;BME280_pressure;Samples;Min_cycle;Max_cycle;Signal;HPM_P1;HPM_P2
2021/12/13 00:01:19;;;;;;;7.27;4.33;;;12.60;56.40;;;;;;4969579;28;20577;-59
2021/12/13 00:04:09;;;;;;;12.63;4.90;;;12.60;57.00;;;;;;4964009;28;20447;-59
2021/12/13 00:06:43;;;;;;;7.20;4.20;;;12.60;57.10;;;;;;4960317;28;20814;-58
2021/12/13 00:09:17;;;;;;;5.70;4.17;;;12.50;57.30;;;;;;4960469;28;20463;-58
2021/12/13 00:11:46;;;;;;;7.03;5.30;;;12.50;57.50;;;;;;4960372;28;20444;-58
2021/12/13 00:14:24;;;;;;;10.13;4.57;;;12.50;57.50;;;;;;4962217;28;20446;-59
2021/12/13 00:17:05;;;;;;;7.40;4.60;;;12.50;57.80;;;;;;4960135;28;20453;-58
2021/12/13 00:19:38;;;;;;;7.87;4.30;;;12.50;58.00;;;;;;4958918;28;20657;-58
2021/12/13 00:22:09;;;;;;;7.00;4.40;;;12.40;58.00;;;;;;4961869;28;20486;-59
2021/12/13 00:24:39;;;;;;;7.80;6.37;;;12.40;58.40;;;;;;4959101;28;20448;-59
2021/12/13 00:27:20;;;;;;;8.87;5.20;;;12.40;58.60;;;;;;4957182;28;21936;-59
2021/12/13 00:29:55;;;;;;;8.50;4.90;;;12.40;59.00;;;;;;4964100;28;20454;-58
2021/12/13 00:32:52;;;;;;;9.90;5.57;;;12.40;59.00;;;;;;4957867;28;20450;-58
2021/12/13 00:35:23;;;;;;;8.30;5.90;;;12.30;59.20;;;;;;4960859;28;20466;-58
2021/12/13 00:37:57;;;;;;;9.10;6.07;;;12.30;59.40;;;;;;4966076;28;22614;-59
2021/12/13 00:40:33;;;;;;;5.70;5.10;;;12.30;59.50;;;;;;4961322;28;20446;-59
2021/12/13 00:43:23;;;;;;;8.70;5.70;;;12.30;59.50;;;;;;4964759;28;20469;-59
2021/12/13 00:46:15;;;;;;;11.20;7.00;;;12.30;59.70;;;;;;4970108;28;20447;-59
2021/12/13 00:48:45;;;;;;;7.77;4.93;;;12.20;59.80;;;;;;4957031;28;20450;-58
2021/12/13 00:51:20;;;;;;;10.00;5.93;;;12.30;60.00;;;;;;4961573;28;20447;-59
2021/12/13 00:53:49;;;;;;;6.80;6.10;;;12.20;60.10;;;;;;4960800;28;20516;-59
2021/12/13 00:56:52;;;;;;;8.30;5.93;;;12.30;60.20;;;;;;4961666;28;20461;-59
2021/12/13 00:59:26;;;;;;;6.10;5.30;;;12.20;60.30;;;;;;4963981;28;20450;-59
2021/12/13 01:02:26;;;;;;;11.70;6.20;;;12.20;60.50;;;;;;4959020;28;20509;-59
2021/12/13 01:05:00;;;;;;;7.87;5.47;;;12.20;60.60;;;;;;4957264;28;20463;-59
2021/12/13 01:08:03;;;;;;;6.20;5.60;;;12.20;60.60;;;;;;4961667;28;20442;-59
2021/12/13 01:10:38;;;;;;;9.23;6.70;;;12.20;60.70;;;;;;4962970;28;20502;-59
2021/12/13 01:13:08;;;;;;;8.20;5.97;;;12.10;60.80;;;;;;4959062;28;20456;-58
2021/12/13 01:15:48;;;;;;;8.73;6.73;;;12.20;60.90;;;;;;4957124;28;20590;-59
2021/12/13 01:21:12;;;;;;;7.33;6.63;;;12.20;61.00;;;;;;4958833;28;20481;-59
2021/12/13 01:23:45;;;;;;;7.57;6.77;;;12.10;61.30;;;;;;4960519;28;22076;-59
2021/12/13 01:26:36;;;;;;;9.03;6.23;;;12.10;61.40;;;;;;4959585;28;20454;-59
2021/12/13 01:29:08;;;;;;;6.70;5.93;;;12.20;61.20;;;;;;4959126;28;20471;-59
2021/12/13 01:31:44;;;;;;;10.57;6.03;;;12.20;61.10;;;;;;4961790;28;20469;-59
2021/12/13 01:34:11;;;;;;;7.77;6.37;;;12.20;61.10;;;;;;4958769;28;20455;-59
2021/12/13 01:36:46;;;;;;;7.77;6.67;;;12.20;61.10;;;;;;4957180;28;20850;-58
2021/12/13 01:39:18;;;;;;;7.93;7.13;;;12.10;61.50;;;;;;4962294;28;22360;-59
2021/12/13 01:42:09;;;;;;;7.50;6.80;;;12.10;61.60;;;;;;4966945;28;20513;-59
2021/12/13 01:44:41;;;;;;;8.87;6.73;;;12.00;61.60;;;;;;4962070;28;20482;-59
2021/12/13 01:47:13;;;;;;;9.80;7.27;;;12.00;61.60;;;;;;4966912;28;20449;-59
2021/12/13 01:49:46;;;;;;;10.70;6.47;;;11.80;61.60;;;;;;4963233;28;20450;-59
2021/12/13 01:52:30;;;;;;;8.60;6.80;;;11.60;62.70;;;;;;4962440;28;20442;-59
2021/12/13 01:55:15;;;;;;;7.53;6.80;;;11.60;63.10;;;;;;4966744;28;20469;-59
2021/12/13 01:57:49;;;;;;;9.70;7.30;;;11.60;63.40;;;;;;4963894;28;20512;-59
2021/12/13 02:00:31;;;;;;;7.67;6.80;;;11.70;63.40;;;;;;4959992;28;20452;-58
2021/12/13 02:02:57;;;;;;;9.80;7.50;;;11.70;63.30;;;;;;4962112;28;20537;-59
2021/12/13 02:05:33;;;;;;;10.57;7.60;;;11.70;63.30;;;;;;4964468;28;20487;-58
2021/12/13 02:08:14;;;;;;;8.73;7.10;;;11.80;63.30;;;;;;4963991;28;20454;-58
2021/12/13 02:10:45;;;;;;;11.23;6.47;;;11.80;63.10;;;;;;4958624;28;20479;-58
2021/12/13 02:13:17;;;;;;;8.50;7.07;;;11.90;63.10;;;;;;4957760;28;20447;-58
2021/12/13 02:18:36;;;;;;;8.07;7.00;;;11.90;62.70;;;;;;4966191;28;20463;-58
2021/12/13 02:21:24;;;;;;;12.10;6.57;;;11.80;62.80;;;;;;4964352;28;20498;-59
2021/12/13 02:23:54;;;;;;;13.20;7.20;;;11.70;63.20;;;;;;4963069;28;20459;-58
2021/12/13 02:26:20;;;;;;;8.33;6.67;;;11.60;63.60;;;;;;4964483;28;20800;-58
2021/12/13 02:28:51;;;;;;;8.57;7.30;;;11.50;63.80;;;;;;4964245;28;20479;-58
2021/12/13 02:31:24;;;;;;;7.03;6.33;;;11.60;63.90;;;;;;4965551;28;20568;-58
2021/12/13 02:34:00;;;;;;;11.50;8.20;;;11.60;64.10;;;;;;4958273;28;20525;-58
2021/12/13 02:36:33;;;;;;;9.27;7.70;;;11.70;64.00;;;;;;4964350;28;20983;-58
2021/12/13 02:39:05;;;;;;;8.33;7.43;;;11.60;64.10;;;;;;4960570;28;20440;-58
2021/12/13 02:41:32;;;;;;;9.40;7.30;;;11.50;64.30;;;;;;4961707;28;20541;-58
2021/12/13 02:44:05;;;;;;;8.20;7.03;;;11.60;64.30;;;;;;4961005;28;20458;-58
2021/12/13 02:46:31;;;;;;;12.60;6.63;;;11.50;64.00;;;;;;4965100;28;20442;-58
2021/12/13 02:49:01;;;;;;;8.73;7.83;;;11.60;64.10;;;;;;4961584;28;20824;-58
2021/12/13 02:51:41;;;;;;;9.43;7.47;;;11.60;63.90;;;;;;4963523;28;20454;-58
2021/12/13 02:54:16;;;;;;;9.47;6.90;;;11.70;63.90;;;;;;4960864;28;20509;-58
2021/12/13 02:57:22;;;;;;;9.07;7.30;;;11.70;63.50;;;;;;4964765;28;20973;-58
2021/12/13 02:59:55;;;;;;;7.73;6.77;;;11.70;63.70;;;;;;4920154;28;20950;-59
2021/12/13 03:02:25;;;;;;;8.30;6.73;;;11.70;63.70;;;;;;4963328;28;20906;-58
2021/12/13 03:04:51;;;;;;;7.20;6.50;;;11.70;63.80;;;;;;4961697;28;20443;-58
2021/12/13 03:07:47;;;;;;;9.03;6.90;;;11.70;63.70;;;;;;4968454;28;20477;-58
2021/12/13 03:10:23;;;;;;;7.77;6.73;;;11.40;64.00;;;;;;4968785;28;20199;-58
2021/12/13 03:12:49;;;;;;;10.03;7.30;;;11.50;64.60;;;;;;4972337;28;20457;-58
2021/12/13 03:15:19;;;;;;;9.70;6.83;;;11.60;64.30;;;;;;4968469;28;20430;-58
2021/12/13 03:18:05;;;;;;;9.27;8.00;;;11.60;64.40;;;;;;4971074;28;20431;-58
2021/12/13 03:20:52;;;;;;;9.70;8.47;;;11.60;64.40;;;;;;4968786;28;20470;-58
2021/12/13 03:23:40;;;;;;;10.83;8.67;;;11.60;63.90;;;;;;4972769;28;20801;-58
2021/12/13 03:26:24;;;;;;;11.30;8.50;;;11.60;64.00;;;;;;4969606;28;20968;-58
2021/12/13 03:29:06;;;;;;;10.07;7.47;;;11.70;63.90;;;;;;4971333;28;20467;-59
2021/12/13 03:31:42;;;;;;;11.80;8.20;;;11.80;63.80;;;;;;4972508;28;21100;-58
2021/12/13 03:34:17;;;;;;;10.43;7.13;;;11.80;63.50;;;;;;4970640;28;20448;-58
2021/12/13 03:37:04;;;;;;;8.13;7.27;;;11.90;63.50;;;;;;4968634;28;20446;-58
2021/12/13 03:39:40;;;;;;;9.33;7.10;;;11.80;63.30;;;;;;4971499;28;21185;-58
2021/12/13 03:42:25;;;;;;;11.17;7.30;;;11.90;63.40;;;;;;4971422;28;20536;-58
2021/12/13 03:44:54;;;;;;;9.07;7.53;;;11.90;63.30;;;;;;4970928;28;20442;-58
2021/12/13 03:47:25;;;;;;;7.80;6.80;;;11.90;63.20;;;;;;4971279;28;20501;-58
2021/12/13 03:49:55;;;;;;;8.77;7.73;;;12.00;63.20;;;;;;4968274;28;20799;-58
2021/12/13 03:52:23;;;;;;;10.20;8.10;;;12.00;63.20;;;;;;4971766;28;20942;-58
2021/12/13 03:54:52;;;;;;;8.80;7.80;;;12.00;63.30;;;;;;4970862;28;20485;-58
2021/12/13 03:57:18;;;;;;;11.50;7.97;;;11.90;63.40;;;;;;4971783;28;20550;-58
2021/12/13 03:59:46;;;;;;;9.73;6.70;;;11.90;63.60;;;;;;4970561;28;20474;-58
2021/12/13 04:02:20;;;;;;;12.60;7.60;;;11.90;63.70;;;;;;4971427;28;21005;-58
2021/12/13 04:04:53;;;;;;;8.60;7.10;;;11.90;63.70;;;;;;4969731;28;20582;-58
2021/12/13 04:07:33;;;;;;;7.17;6.40;;;11.90;64.20;;;;;;4968425;28;20530;-58
2021/12/13 04:10:04;;;;;;;10.90;7.00;;;11.90;63.90;;;;;;4962998;28;20844;-58
2021/12/13 04:12:44;;;;;;;8.33;6.70;;;11.90;63.70;;;;;;4971902;28;20450;-58
2021/12/13 04:15:25;;;;;;;7.63;6.47;;;12.00;63.80;;;;;;4970027;28;20474;-58
2021/12/13 04:18:14;;;;;;;7.90;6.30;;;11.90;63.90;;;;;;4969894;28;20534;-58
2021/12/13 04:20:44;;;;;;;7.37;6.37;;;11.90;63.90;;;;;;4962780;28;20846;-58
2021/12/13 04:23:22;;;;;;;9.80;7.07;;;11.90;64.10;;;;;;4969777;28;20461;-58
2021/12/13 04:25:50;;;;;;;9.33;5.60;;;11.90;64.20;;;;;;4960052;28;20447;-58
2021/12/13 04:28:37;;;;;;;7.87;6.37;;;11.90;64.20;;;;;;4964620;28;20849;-58
2021/12/13 04:31:09;;;;;;;9.30;6.63;;;11.80;64.00;;;;;;4965626;28;20547;-58
2021/12/13 04:33:50;;;;;;;8.47;6.47;;;11.90;64.30;;;;;;4957043;28;20450;-58
2021/12/13 04:36:26;;;;;;;7.13;5.77;;;11.80;64.50;;;;;;4965666;28;20497;-58
2021/12/13 04:39:07;;;;;;;8.30;6.70;;;11.80;64.80;;;;;;4961588;28;20451;-58
2021/12/13 04:41:39;;;;;;;8.13;7.00;;;11.80;64.70;;;;;;4964994;28;20490;-58
2021/12/13 04:44:11;;;;;;;8.27;7.30;;;11.80;64.70;;;;;;4971455;28;20447;-58
2021/12/13 04:46:40;;;;;;;10.97;6.80;;;11.80;64.70;;;;;;4962532;28;20482;-58
2021/12/13 04:49:09;;;;;;;9.33;7.60;;;11.80;64.60;;;;;;4963610;28;20465;-58
2021/12/13 04:51:59;;;;;;;11.93;8.27;;;11.80;64.60;;;;;;4965661;28;20505;-58
2021/12/13 04:54:30;;;;;;;10.90;7.67;;;11.90;64.60;;;;;;4960714;28;20442;-59
2021/12/13 04:56:58;;;;;;;10.57;8.10;;;11.80;64.60;;;;;;4967801;28;20446;-58
2021/12/13 04:59:25;;;;;;;13.50;8.77;;;11.80;64.70;;;;;;4960201;28;20453;-58
2021/12/13 05:01:55;;;;;;;13.50;8.50;;;11.70;65.30;;;;;;4966825;28;20981;-58
2021/12/13 05:04:22;;;;;;;10.50;7.37;;;11.60;65.50;;;;;;4966276;28;20441;-58
2021/12/13 05:06:51;;;;;;;10.73;8.53;;;11.60;65.50;;;;;;4971019;28;20562;-58
2021/12/13 05:09:20;;;;;;;9.83;8.17;;;11.60;65.50;;;;;;4971696;28;20951;-58
2021/12/13 05:11:50;;;;;;;11.50;8.60;;;11.40;65.90;;;;;;4967191;28;20999;-58
2021/12/13 05:14:32;;;;;;;11.93;7.87;;;11.40;66.40;;;;;;4970265;28;20441;-58
2021/12/13 05:17:07;;;;;;;12.80;8.77;;;11.30;66.50;;;;;;4967085;28;20527;-58
2021/12/13 05:19:39;;;;;;;9.20;7.80;;;11.40;66.30;;;;;;4968537;28;20780;-58
2021/12/13 05:22:07;;;;;;;10.13;8.70;;;11.40;66.30;;;;;;4964594;28;20490;-58
2021/12/13 05:24:40;;;;;;;11.63;9.40;;;11.50;66.20;;;;;;4966656;28;20513;-59
2021/12/13 05:27:10;;;;;;;10.70;9.00;;;11.50;66.10;;;;;;4969454;28;20485;-58
2021/12/13 05:29:43;;;;;;;12.63;8.57;;;11.50;66.10;;;;;;4969871;28;20443;-58
2021/12/13 05:32:16;;;;;;;11.50;8.57;;;11.50;65.90;;;;;;4969998;28;20582;-58
2021/12/13 05:34:49;;;;;;;10.77;8.30;;;11.60;65.90;;;;;;4960205;28;20922;-59
2021/12/13 05:37:16;;;;;;;12.40;10.00;;;11.50;66.00;;;;;;4970937;28;20945;-58
2021/12/13 05:39:54;;;;;;;12.80;8.83;;;11.50;65.90;;;;;;4970552;28;20449;-58
2021/12/13 05:42:19;;;;;;;11.07;7.43;;;11.50;66.10;;;;;;4966286;28;20525;-58
2021/12/13 05:44:46;;;;;;;11.47;8.60;;;11.60;65.50;;;;;;4971458;28;20438;-59
2021/12/13 05:47:25;;;;;;;13.23;8.90;;;11.60;65.40;;;;;;4971682;28;20666;-58
2021/12/13 05:49:52;;;;;;;10.87;8.40;;;11.60;65.40;;;;;;4971605;28;20531;-59
2021/12/13 05:52:24;;;;;;;13.53;7.83;;;11.50;65.80;;;;;;4967829;28;20436;-59
2021/12/13 05:54:54;;;;;;;10.67;8.53;;;11.60;65.70;;;;;;4966933;28;20442;-59
2021/12/13 05:57:22;;;;;;;10.87;7.40;;;11.60;65.60;;;;;;4961681;28;20451;-59
2021/12/13 05:59:51;;;;;;;11.67;7.87;;;11.50;65.80;;;;;;4967475;28;20447;-59
2021/12/13 06:02:39;;;;;;;11.40;10.20;;;11.40;66.20;;;;;;4971642;28;20486;-59
2021/12/13 06:05:25;;;;;;;10.77;8.67;;;11.30;66.40;;;;;;4957948;28;20458;-58
2021/12/13 06:08:01;;;;;;;10.30;8.40;;;11.40;66.90;;;;;;4961887;28;20442;-59
2021/12/13 06:10:48;;;;;;;10.93;8.10;;;11.30;66.90;;;;;;4963709;28;20960;-59
2021/12/13 06:13:58;;;;;;;10.30;8.17;;;11.40;66.60;;;;;;4963653;28;20452;-60
2021/12/13 06:16:24;;;;;;;9.50;8.50;;;11.40;66.40;;;;;;4928935;29;20910;-58
2021/12/13 06:19:04;;;;;;;11.90;6.30;;;11.30;66.90;;;;;;4952666;28;20446;-56
2021/12/13 06:21:47;;;;;;;10.13;7.30;;;11.40;68.10;;;;;;4961283;28;21336;-56
2021/12/13 06:24:13;;;;;;;13.50;7.70;;;11.70;68.60;;;;;;4964391;28;20581;-58
2021/12/13 06:26:39;;;;;;;9.47;7.77;;;12.00;67.90;;;;;;4964201;28;20455;-57
2021/12/13 06:29:08;;;;;;;9.10;7.67;;;12.20;66.80;;;;;;4966062;28;20922;-57
2021/12/13 06:31:44;;;;;;;10.23;8.30;;;12.30;65.60;;;;;;4967963;28;20438;-58
2021/12/13 06:34:13;;;;;;;10.93;7.47;;;12.40;64.90;;;;;;4968098;28;20439;-57
2021/12/13 06:36:43;;;;;;;10.33;6.90;;;12.40;64.80;;;;;;4965427;28;20443;-57
2021/12/13 06:39:15;;;;;;;9.67;7.07;;;12.60;64.30;;;;;;4971443;28;20455;-57
2021/12/13 06:41:45;;;;;;;9.20;8.13;;;12.70;65.10;;;;;;4971831;28;20509;-58
2021/12/13 06:44:31;;;;;;;11.40;7.30;;;12.90;64.00;;;;;;4973548;28;20910;-58
2021/12/13 06:46:56;;;;;;;9.20;7.23;;;13.00;62.80;;;;;;4973988;28;20477;-58
2021/12/13 06:49:25;;;;;;;9.23;6.63;;;13.10;62.50;;;;;;4972703;28;20466;-57
2021/12/13 06:51:59;;;;;;;8.43;6.83;;;13.20;62.00;;;;;;4971285;28;20555;-58
2021/12/13 06:54:24;;;;;;;10.30;7.50;;;13.20;61.50;;;;;;4974168;28;20446;-58
2021/12/13 06:57:29;;;;;;;10.70;6.87;;;13.20;61.20;;;;;;4973801;28;20439;-58
2021/12/13 07:00:10;;;;;;;9.23;8.27;;;13.30;61.10;;;;;;4973315;28;20191;-57
2021/12/13 07:02:38;;;;;;;10.00;7.60;;;13.20;60.40;;;;;;4972091;28;20497;-57
2021/12/13 07:05:23;;;;;;;11.57;7.97;;;13.20;60.40;;;;;;4973754;28;20489;-58
2021/12/13 07:07:59;;;;;;;9.03;8.07;;;13.20;60.60;;;;;;4973551;28;20465;-58
2021/12/13 07:10:30;;;;;;;8.80;7.20;;;13.30;60.50;;;;;;4972034;28;20473;-56
2021/12/13 07:13:04;;;;;;;8.60;7.73;;;13.30;60.20;;;;;;4975516;28;20438;-58
2021/12/13 07:15:55;;;;;;;8.90;8.00;;;13.40;60.00;;;;;;4968190;28;21016;-58
2021/12/13 07:18:29;;;;;;;10.27;7.77;;;13.50;59.70;;;;;;4972265;28;20517;-57
2021/12/13 07:21:01;;;;;;;9.20;8.27;;;13.60;59.50;;;;;;4974502;28;20527;-58
2021/12/13 07:23:28;;;;;;;10.97;8.13;;;13.30;58.90;;;;;;4972187;28;20477;-58
2021/12/13 07:25:55;;;;;;;10.20;8.40;;;13.20;59.80;;;;;;4973485;28;20427;-58
2021/12/13 07:28:34;;;;;;;11.87;8.47;;;13.20;60.20;;;;;;4962118;28;20977;-58
2021/12/13 07:31:05;;;;;;;11.67;9.00;;;13.20;60.20;;;;;;4971455;28;20560;-58
2021/12/13 07:33:44;;;;;;;12.57;9.57;;;13.30;60.10;;;;;;4973079;28;20438;-58
2021/12/13 07:36:15;;;;;;;15.03;10.40;;;13.20;59.80;;;;;;4968529;28;20454;-58
2021/12/13 07:38:58;;;;;;;13.70;10.03;;;13.30;59.90;;;;;;4970886;28;20813;-58
2021/12/13 07:41:36;;;;;;;11.03;8.17;;;13.30;59.90;;;;;;4967198;28;21067;-57
2021/12/13 07:44:02;;;;;;;13.70;8.90;;;13.20;60.30;;;;;;4965758;28;20447;-57
2021/12/13 07:46:31;;;;;;;9.93;8.00;;;13.10;60.80;;;;;;4966022;28;20449;-56
2021/12/13 07:49:08;;;;;;;11.13;8.50;;;13.00;61.00;;;;;;4973992;28;20768;-57
2021/12/13 07:51:37;;;;;;;13.47;9.97;;;13.00;61.10;;;;;;4968804;28;20458;-57
2021/12/13 07:54:05;;;;;;;14.70;8.47;;;13.00;60.70;;;;;;4968290;28;20474;-57
2021/12/13 07:56:40;;;;;;;10.17;8.90;;;13.00;61.00;;;;;;4969254;28;20810;-58
2021/12/13 07:59:26;;;;;;;13.80;11.27;;;13.00;60.90;;;;;;4973625;28;20438;-57
2021/12/13 08:02:22;;;;;;;12.10;8.53;;;12.80;61.00;;;;;;4974239;28;20486;-57
2021/12/13 08:04:48;;;;;;;11.87;8.70;;;12.70;62.20;;;;;;4966642;28;20430;-57
2021/12/13 08:07:13;;;;;;;10.60;8.10;;;12.90;62.10;;;;;;4973843;28;20864;-56
2021/12/13 08:09:51;;;;;;;13.03;9.50;;;12.80;61.70;;;;;;4962828;28;20198;-56
2021/12/13 08:12:23;;;;;;;9.43;8.33;;;12.60;62.40;;;;;;4953477;28;20695;-55
2021/12/13 08:14:52;;;;;;;13.00;8.63;;;12.40;62.70;;;;;;4973744;28;20537;-58
2021/12/13 08:17:23;;;;;;;13.60;10.40;;;12.50;63.40;;;;;;4974020;28;20439;-56
2021/12/13 08:20:00;;;;;;;16.97;8.93;;;12.60;63.00;;;;;;4973625;28;20880;-56
2021/12/13 08:22:30;;;;;;;11.33;8.97;;;12.80;62.50;;;;;;4974502;28;21137;-55
2021/12/13 08:25:00;;;;;;;10.50;8.40;;;12.90;62.10;;;;;;4973388;28;20797;-56
2021/12/13 08:27:39;;;;;;;13.47;9.20;;;12.90;62.20;;;;;;4973341;28;20628;-55
2021/12/13 08:30:07;;;;;;;13.37;9.30;;;13.10;61.40;;;;;;4971307;28;20438;-56
2021/12/13 08:32:33;;;;;;;12.33;8.57;;;12.80;61.90;;;;;;4973828;28;20485;-56
2021/12/13 08:35:00;;;;;;;10.13;8.43;;;12.90;62.40;;;;;;4973423;28;20431;-57
2021/12/13 08:37:39;;;;;;;12.73;8.43;;;13.10;62.20;;;;;;4973437;28;20191;-56
2021/12/13 08:40:08;;;;;;;11.50;8.20;;;13.10;61.90;;;;;;4971877;28;20431;-57
2021/12/13 08:42:41;;;;;;;11.23;9.90;;;13.20;61.70;;;;;;4973643;28;20490;-55
2021/12/13 08:45:22;;;;;;;13.10;9.07;;;13.00;61.70;;;;;;4972897;28;20910;-57
2021/12/13 08:47:56;;;;;;;8.50;7.50;;;12.90;61.50;;;;;;4973777;28;20443;-55
2021/12/13 08:50:33;;;;;;;14.00;9.40;;;12.60;63.60;;;;;;4967613;28;20442;-55
2021/12/13 08:53:07;;;;;;;9.30;7.30;;;12.40;64.30;;;;;;4973572;28;20439;-56
2021/12/13 08:55:37;;;;;;;8.90;7.60;;;12.40;64.20;;;;;;4972881;28;20442;-56
2021/12/13 08:58:12;;;;;;;7.60;6.70;;;12.50;64.20;;;;;;4973860;28;20457;-56
2021/12/13 09:00:53;;;;;;;11.00;7.93;;;12.70;63.40;;;;;;4972402;28;20934;-56
2021/12/13 09:03:33;;;;;;;9.03;8.13;;;12.90;63.30;;;;;;4973589;28;20462;-56
2021/12/13 09:06:08;;;;;;;10.73;7.77;;;13.10;62.60;;;;;;4967145;28;20520;-56
2021/12/13 09:09:05;;;;;;;8.23;7.10;;;13.20;62.40;;;;;;4966660;28;20980;-56
2021/12/13 09:11:34;;;;;;;10.77;7.60;;;13.30;62.10;;;;;;4966854;28;20869;-56
2021/12/13 09:14:23;;;;;;;13.20;9.00;;;13.40;61.80;;;;;;4968087;28;20485;-56
2021/12/13 09:17:10;;;;;;;9.37;7.77;;;13.50;61.70;;;;;;4970747;28;20433;-55
2021/12/13 09:19:48;;;;;;;13.20;7.37;;;13.20;61.60;;;;;;4975511;28;20830;-53
2021/12/13 09:22:26;;;;;;;8.77;7.13;;;13.10;61.80;;;;;;4956120;28;20494;-52
2021/12/13 09:24:59;;;;;;;9.73;6.77;;;13.10;62.80;;;;;;4960156;28;20457;-54
2021/12/13 09:27:51;;;;;;;8.17;7.27;;;13.30;62.40;;;;;;4966785;28;20478;-53
2021/12/13 09:30:22;;;;;;;10.00;7.40;;;13.40;62.20;;;;;;4961519;28;20496;-52
2021/12/13 09:33:07;;;;;;;12.23;6.37;;;12.90;62.50;;;;;;4967627;28;20439;-54
2021/12/13 09:35:37;;;;;;;8.20;6.43;;;13.00;63.90;;;;;;4970013;28;20993;-53
2021/12/13 09:38:24;;;;;;;7.70;6.40;;;13.20;63.60;;;;;;4968317;28;20505;-53
2021/12/13 09:41:03;;;;;;;7.70;6.17;;;13.40;63.10;;;;;;4955576;28;20475;-54
2021/12/13 09:43:43;;;;;;;7.50;6.70;;;13.40;62.70;;;;;;4953105;28;20460;-51
2021/12/13 09:46:14;;;;;;;8.00;7.20;;;13.50;62.80;;;;;;4955378;28;20450;-53
2021/12/13 09:48:51;;;;;;;8.57;6.90;;;13.50;62.80;;;;;;4971458;28;20435;-54
2021/12/13 09:51:24;;;;;;;8.77;7.33;;;13.50;63.20;;;;;;4972226;28;20496;-53
2021/12/13 09:53:53;;;;;;;7.70;6.80;;;13.60;63.40;;;;;;4972584;28;20455;-53
2021/12/13 09:56:22;;;;;;;8.10;7.30;;;13.80;62.90;;;;;;4969564;28;20474;-53
2021/12/13 09:59:00;;;;;;;12.10;7.77;;;14.00;62.30;;;;;;4971152;28;20458;-53
2021/12/13 10:01:39;;;;;;;8.07;6.40;;;14.10;62.10;;;;;;4968246;28;20478;-52
2021/12/13 10:04:12;;;;;;;11.27;6.93;;;14.20;61.70;;;;;;4970090;28;20798;-52
2021/12/13 10:06:43;;;;;;;7.50;6.70;;;14.10;61.30;;;;;;4972436;28;20822;-53
2021/12/13 10:09:16;;;;;;;8.37;6.40;;;14.10;61.60;;;;;;4968228;28;20432;-53
2021/12/13 10:11:56;;;;;;;9.13;7.13;;;14.20;61.40;;;;;;4974615;28;20449;-52
2021/12/13 10:14:29;;;;;;;13.40;7.03;;;14.30;61.30;;;;;;4974074;28;20446;-53
2021/12/13 10:16:56;;;;;;;11.23;7.70;;;14.40;61.40;;;;;;4974371;28;20534;-52
2021/12/13 10:19:35;;;;;;;8.33;7.00;;;14.50;61.30;;;;;;4970227;28;20439;-51
2021/12/13 10:22:03;;;;;;;10.80;8.40;;;14.50;60.90;;;;;;4969427;28;20527;-51
2021/12/13 10:25:15;;;;;;;8.43;6.60;;;14.60;61.00;;;;;;4974431;28;20965;-49
2021/12/13 10:27:42;;;;;;;9.90;7.50;;;14.60;61.10;;;;;;4952028;29;20498;-50
2021/12/13 10:30:15;;;;;;;8.97;7.40;;;14.60;61.30;;;;;;4970318;28;20465;-51
2021/12/13 10:32:42;;;;;;;7.90;7.00;;;14.70;61.50;;;;;;4971004;28;20468;-51
2021/12/13 10:35:18;;;;;;;9.20;7.73;;;14.70;61.40;;;;;;4974408;28;20434;-52
2021/12/13 10:37:51;;;;;;;9.20;7.20;;;14.80;61.10;;;;;;4963084;28;20612;-50
2021/12/13 10:40:28;;;;;;;9.37;7.70;;;14.80;61.10;;;;;;4974166;28;20435;-52
2021/12/13 10:42:58;;;;;;;7.17;6.37;;;14.90;61.10;;;;;;4971105;28;20489;-51
2021/12/13 10:45:28;;;;;;;9.40;8.33;;;14.90;60.90;;;;;;4965184;28;20438;-50
2021/12/13 10:47:58;;;;;;;8.80;7.10;;;14.90;61.00;;;;;;4969079;28;20435;-50
2021/12/13 10:50:37;;;;;;;7.43;6.63;;;15.00;61.20;;;;;;4973684;28;20489;-53
2021/12/13 10:53:05;;;;;;;7.03;6.33;;;14.90;60.80;;;;;;4974489;28;21088;-51
2021/12/13 10:55:39;;;;;;;8.63;6.10;;;14.90;61.00;;;;;;4970204;28;20435;-49
2021/12/13 10:58:05;;;;;;;8.70;7.17;;;15.00;61.60;;;;;;4968744;28;20866;-50
2021/12/13 11:00:39;;;;;;;8.13;7.30;;;15.00;61.40;;;;;;4969478;28;20443;-50
2021/12/13 11:03:12;;;;;;;7.37;6.50;;;15.10;61.50;;;;;;4972431;28;20438;-50
2021/12/13 11:05:40;;;;;;;7.70;6.30;;;15.10;61.10;;;;;;4970060;28;20500;-50
2021/12/13 11:08:10;;;;;;;8.30;6.50;;;15.10;61.20;;;;;;4973715;28;21826;-50
2021/12/13 11:10:46;;;;;;;7.30;5.30;;;15.20;61.10;;;;;;4970859;28;20918;-49
2021/12/13 11:13:13;;;;;;;6.43;5.50;;;15.20;60.70;;;;;;4975028;28;20798;-49
2021/12/13 11:15:42;;;;;;;6.90;6.30;;;15.20;60.80;;;;;;4971013;28;20794;-53
2021/12/13 11:18:12;;;;;;;5.93;5.30;;;15.20;60.70;;;;;;4966537;28;20523;-50
2021/12/13 11:20:45;;;;;;;6.03;5.33;;;15.20;60.70;;;;;;4972719;28;20836;-53
2021/12/13 11:23:13;;;;;;;5.47;4.87;;;15.10;61.10;;;;;;4971592;28;20442;-50
2021/12/13 11:25:52;;;;;;;5.87;5.27;;;15.10;60.40;;;;;;4971877;28;20529;-50
2021/12/13 11:28:18;;;;;;;5.67;5.07;;;15.00;61.50;;;;;;4969829;28;20480;-52
2021/12/13 11:30:46;;;;;;;7.20;5.77;;;14.90;62.10;;;;;;4971305;28;20431;-49
2021/12/13 11:33:22;;;;;;;5.90;5.23;;;14.90;62.10;;;;;;4970597;28;20918;-50
2021/12/13 11:36:33;;;;;;;5.00;4.50;;;15.10;61.40;;;;;;4972842;28;20834;-50
2021/12/13 11:39:18;;;;;;;5.60;5.10;;;15.20;61.30;;;;;;4972243;28;20453;-52
2021/12/13 11:42:28;;;;;;;5.00;4.60;;;15.30;61.20;;;;;;4972620;28;20489;-52
2021/12/13 11:45:31;;;;;;;4.67;4.13;;;15.30;60.60;;;;;;4971409;28;20509;-52
2021/12/13 11:48:30;;;;;;;6.50;4.67;;;15.30;60.50;;;;;;4965923;28;21908;-51
2021/12/13 11:51:05;;;;;;;5.00;3.70;;;15.40;60.60;;;;;;4968685;28;20874;-53
2021/12/13 11:54:24;;;;;;;4.40;4.00;;;15.50;60.80;;;;;;4972884;28;20973;-53
2021/12/13 11:57:11;;;;;;;3.73;3.30;;;15.60;60.10;;;;;;4911471;29;20968;-53
2021/12/13 12:00:10;;;;;;;2.87;2.60;;;15.70;60.00;;;;;;4969409;28;20807;-51
2021/12/13 12:02:47;;;;;;;3.80;3.33;;;15.90;59.60;;;;;;4967807;28;20486;-53
2021/12/13 12:05:37;;;;;;;3.50;3.03;;;16.00;59.30;;;;;;4970653;28;20439;-53
2021/12/13 12:08:44;;;;;;;3.97;2.70;;;16.10;58.90;;;;;;4972211;28;20509;-49
2021/12/13 12:11:30;;;;;;;3.57;3.03;;;16.30;58.60;;;;;;4969476;28;20438;-53
2021/12/13 12:14:05;;;;;;;3.33;3.00;;;16.30;58.00;;;;;;4972326;28;20450;-52
2021/12/13 12:16:45;;;;;;;3.30;3.00;;;16.30;57.70;;;;;;4967892;28;20445;-53
2021/12/13 12:19:20;;;;;;;4.27;3.70;;;16.30;57.60;;;;;;4967554;28;20431;-53
2021/12/13 12:22:02;;;;;;;3.67;3.37;;;16.40;57.80;;;;;;4971760;28;20576;-53
2021/12/13 12:24:41;;;;;;;2.93;2.63;;;16.50;57.90;;;;;;4972016;28;20541;-51
2021/12/13 12:27:15;;;;;;;2.80;2.60;;;16.60;57.80;;;;;;4970322;28;21025;-53
2021/12/13 12:29:50;;;;;;;4.77;3.50;;;16.70;57.60;;;;;;4967993;28;20449;-53
2021/12/13 12:32:31;;;;;;;3.70;2.40;;;16.80;57.20;;;;;;4972237;28;20871;-52
2021/12/13 12:35:18;;;;;;;2.50;2.30;;;16.80;56.00;;;;;;4967971;28;20442;-53
2021/12/13 12:37:53;;;;;;;3.60;1.93;;;16.80;56.70;;;;;;4969234;28;20419;-52
2021/12/13 12:40:21;;;;;;;2.47;2.27;;;16.80;56.90;;;;;;4968826;28;20496;-51
2021/12/13 12:42:50;;;;;;;4.53;2.10;;;16.90;56.50;;;;;;4968676;28;20483;-53
2021/12/13 12:45:21;;;;;;;2.70;2.37;;;16.70;56.50;;;;;;4967433;28;20427;-52
2021/12/13 12:47:46;;;;;;;2.50;2.30;;;17.10;55.70;;;;;;4967925;28;20450;-50
2021/12/13 12:50:12;;;;;;;2.93;2.73;;;17.40;55.20;;;;;;4958845;28;20440;-52
2021/12/13 12:52:54;;;;;;;2.37;2.20;;;17.50;54.80;;;;;;4966014;28;20191;-53
2021/12/13 12:55:29;;;;;;;2.80;2.57;;;17.50;54.50;;;;;;4966506;28;20184;-52
2021/12/13 12:57:56;;;;;;;3.30;3.00;;;17.40;54.70;;;;;;4970456;28;20805;-49
2021/12/13 13:00:25;;;;;;;3.03;2.83;;;17.30;55.20;;;;;;4969792;28;20553;-52
2021/12/13 13:02:51;;;;;;;4.43;4.07;;;17.10;55.10;;;;;;4970781;28;20492;-53
2021/12/13 13:05:19;;;;;;;3.83;3.53;;;17.10;55.40;;;;;;4969551;28;20450;-52
2021/12/13 13:07:45;;;;;;;3.80;2.70;;;17.00;55.40;;;;;;4967617;28;20463;-53
2021/12/13 13:10:26;;;;;;;4.73;4.33;;;16.90;55.80;;;;;;4968334;28;20568;-50
2021/12/13 13:13:02;;;;;;;4.37;3.97;;;16.60;56.60;;;;;;4970848;28;20446;-52
2021/12/13 13:15:35;;;;;;;4.00;3.50;;;16.50;57.00;;;;;;4964339;28;20450;-49
2021/12/13 13:18:02;;;;;;;6.10;4.17;;;16.40;57.30;;;;;;4967041;28;20443;-49
2021/12/13 13:20:42;;;;;;;4.53;4.13;;;16.40;57.20;;;;;;4967906;28;20427;-50
2021/12/13 13:23:10;;;;;;;4.27;3.40;;;16.30;57.20;;;;;;4968364;28;20453;-53
2021/12/13 13:25:43;;;;;;;4.47;3.77;;;16.30;57.20;;;;;;4969877;28;20446;-50
2021/12/13 13:28:19;;;;;;;3.60;3.30;;;16.30;57.30;;;;;;4968298;28;21893;-52
2021/12/13 13:30:54;;;;;;;3.90;3.33;;;16.30;57.40;;;;;;4962698;28;20450;-49
2021/12/13 13:33:35;;;;;;;3.90;3.60;;;16.30;57.50;;;;;;4965156;28;20812;-53